createdAt,value
2017-11-20T00:02:15.298Z,2.40
2017-11-20T00:04:41.602Z,2.60
2017-11-20T00:07:07.906Z,2.70
2017-11-20T00:09:35.002Z,2.60
2017-11-20T00:12:01.295Z,2.50
2017-11-20T00:14:28.332Z,2.70
2017-11-20T00:16:55.392Z,2.70
2017-11-20T00:19:22.430Z,2.80
2017-11-20T00:21:48.710Z,2.70
2017-11-20T00:24:15.003Z,2.80
2017-11-20T00:26:42.043Z,3.00
2017-11-20T00:29:09.081Z,3.00
2017-11-20T00:31:36.118Z,3.10
2017-11-20T00:34:02.419Z,3.00
2017-11-20T00:36:28.712Z,3.00
2017-11-20T00:38:55.003Z,3.10
2017-11-20T00:41:21.277Z,3.20
2017-11-20T00:43:47.568Z,3.40
2017-11-20T00:46:13.846Z,3.50
2017-11-20T00:48:40.131Z,3.40
2017-11-20T00:51:07.183Z,3.50
2017-11-20T00:53:33.481Z,3.40
2017-11-20T00:55:59.762Z,3.50
2017-11-20T00:58:26.786Z,3.50
2017-11-20T01:00:53.830Z,3.60
2017-11-20T01:03:21.600Z,3.50
2017-11-20T01:05:48.647Z,3.50
2017-11-20T01:08:14.914Z,3.50
2017-11-20T01:10:41.206Z,3.40
2017-11-20T01:13:07.491Z,3.40
2017-11-20T01:15:33.784Z,3.40
2017-11-20T01:18:00.815Z,3.40
2017-11-20T01:20:27.111Z,3.30
2017-11-20T01:22:53.404Z,3.50
2017-11-20T01:25:19.694Z,3.30
2017-11-20T01:27:46.007Z,3.20
2017-11-20T01:30:12.327Z,3.30
2017-11-20T01:32:38.610Z,3.30
2017-11-20T01:35:05.655Z,3.30
2017-11-20T01:37:31.959Z,3.30
2017-11-20T01:39:59.024Z,3.40
2017-11-20T01:42:26.071Z,3.40
2017-11-20T01:44:53.132Z,3.40
2017-11-20T01:47:19.456Z,3.30
2017-11-20T01:49:45.748Z,3.30
2017-11-20T01:52:12.049Z,3.20
2017-11-20T01:54:38.343Z,3.30
2017-11-20T01:57:05.384Z,3.40
2017-11-20T01:59:32.427Z,3.30
2017-11-20T02:01:59.495Z,3.30
2017-11-20T02:04:25.810Z,3.30
2017-11-20T02:06:52.133Z,3.30
2017-11-20T02:09:18.454Z,3.30
2017-11-20T02:11:47.067Z,3.40
2017-11-20T02:14:14.332Z,3.30
2017-11-20T02:16:40.634Z,3.20
2017-11-20T02:19:07.689Z,3.30
2017-11-20T02:21:34.025Z,3.20
2017-11-20T02:24:00.331Z,3.30
2017-11-20T02:26:27.398Z,3.20
2017-11-20T02:28:53.715Z,3.20
2017-11-20T02:31:20.050Z,3.20
2017-11-20T02:33:46.365Z,3.30
2017-11-20T02:36:12.680Z,3.10
2017-11-20T02:38:39.000Z,3.20
2017-11-20T02:41:05.305Z,3.30
2017-11-20T02:43:31.635Z,3.30
2017-11-20T02:45:57.955Z,3.30
2017-11-20T02:48:24.281Z,3.30
2017-11-20T02:50:50.579Z,3.40
2017-11-20T02:53:17.658Z,3.40
2017-11-20T02:55:43.974Z,3.40
2017-11-20T02:58:10.314Z,3.40
2017-11-20T03:00:36.681Z,3.40
2017-11-20T03:03:03.027Z,3.50
2017-11-20T03:05:29.347Z,3.40
2017-11-20T03:07:55.862Z,3.50
2017-11-20T03:10:22.245Z,3.60
2017-11-20T03:12:49.304Z,3.70
2017-11-20T03:15:16.332Z,3.80
2017-11-20T03:17:43.410Z,3.80
2017-11-20T03:20:09.735Z,3.70
2017-11-20T03:22:36.070Z,3.70
2017-11-20T03:25:02.408Z,3.80
2017-11-20T03:27:28.730Z,3.80
2017-11-20T03:29:55.035Z,3.70
2017-11-20T03:32:21.322Z,3.80
2017-11-20T03:34:47.653Z,3.90
2017-11-20T03:37:13.960Z,3.80
2017-11-20T03:39:40.282Z,3.80
2017-11-20T03:42:06.604Z,3.80
2017-11-20T03:44:32.924Z,3.80
2017-11-20T03:46:59.227Z,3.80
2017-11-20T03:49:27.038Z,3.80
2017-11-20T03:51:53.348Z,3.80
2017-11-20T03:54:20.418Z,3.70
2017-11-20T03:56:46.746Z,3.70
2017-11-20T03:59:13.069Z,3.80
2017-11-20T04:01:39.367Z,3.80
2017-11-20T04:04:05.662Z,3.90
2017-11-20T04:06:31.960Z,3.90
2017-11-20T04:08:59.004Z,3.90
2017-11-20T04:11:26.019Z,3.80
2017-11-20T04:13:52.303Z,3.80
2017-11-20T04:16:18.582Z,3.80
2017-11-20T04:18:44.897Z,3.80
2017-11-20T04:21:11.180Z,3.80
2017-11-20T04:23:37.486Z,3.60
2017-11-20T04:26:04.542Z,3.60
2017-11-20T04:28:31.578Z,3.50
2017-11-20T04:30:58.643Z,3.50
2017-11-20T04:33:24.979Z,3.50
2017-11-20T04:35:51.302Z,3.50
2017-11-20T04:38:17.613Z,3.40
2017-11-20T04:40:44.654Z,3.50
2017-11-20T04:43:11.705Z,3.50
2017-11-20T04:45:38.015Z,3.40
2017-11-20T04:48:04.338Z,3.50
2017-11-20T04:50:30.633Z,3.60
2017-11-20T04:52:56.945Z,3.60
2017-11-20T04:55:23.278Z,3.60
2017-11-20T04:57:49.586Z,3.50
2017-11-20T05:00:16.653Z,3.50
2017-11-20T05:02:42.955Z,3.50
2017-11-20T05:05:09.271Z,3.60
2017-11-20T05:07:35.544Z,3.60
2017-11-20T05:10:01.835Z,3.60
2017-11-20T05:12:28.149Z,3.60
2017-11-20T05:14:54.444Z,3.50
2017-11-20T05:17:20.748Z,3.60
2017-11-20T05:19:47.062Z,3.50
2017-11-20T05:22:14.106Z,3.50
2017-11-20T05:24:40.399Z,3.50
2017-11-20T05:27:06.695Z,3.50
2017-11-20T05:29:33.727Z,3.50
2017-11-20T05:32:00.766Z,3.50
2017-11-20T05:34:27.048Z,3.50
2017-11-20T05:36:53.358Z,3.50
2017-11-20T05:39:19.638Z,3.50
2017-11-20T05:41:45.930Z,3.60
2017-11-20T05:44:12.212Z,3.60
2017-11-20T05:46:38.510Z,3.40
2017-11-20T05:49:04.791Z,3.30
2017-11-20T05:51:31.807Z,3.40
2017-11-20T05:53:58.087Z,3.30
2017-11-20T05:56:24.367Z,3.50
2017-11-20T05:58:51.414Z,3.40
2017-11-20T06:01:18.444Z,3.40
2017-11-20T06:03:44.732Z,3.30
2017-11-20T06:06:11.018Z,3.50
2017-11-20T06:08:37.320Z,3.50
2017-11-20T06:11:03.607Z,3.50
2017-11-20T06:13:30.637Z,3.40
2017-11-20T06:15:56.934Z,3.30
2017-11-20T06:18:23.238Z,3.40
2017-11-20T06:20:49.522Z,3.40
2017-11-20T06:23:15.803Z,3.30
2017-11-20T06:25:42.081Z,3.30
2017-11-20T06:28:09.129Z,3.30
2017-11-20T06:30:35.424Z,3.30
2017-11-20T06:33:01.720Z,3.20
2017-11-20T06:35:28.028Z,3.30
2017-11-20T06:37:55.051Z,3.40
2017-11-20T06:40:21.352Z,3.30
2017-11-20T06:42:47.629Z,3.30
2017-11-20T06:45:13.928Z,3.30
2017-11-20T06:47:40.336Z,3.30
2017-11-20T06:50:07.504Z,3.40
2017-11-20T06:52:33.793Z,3.40
2017-11-20T06:55:00.087Z,3.40
2017-11-20T06:57:27.134Z,3.40
2017-11-20T06:59:53.445Z,3.30
2017-11-20T07:02:19.725Z,3.40
2017-11-20T07:04:46.046Z,3.30
2017-11-20T07:07:13.095Z,3.40
2017-11-20T07:09:40.158Z,3.30
2017-11-20T07:12:06.460Z,3.30
2017-11-20T07:14:33.511Z,3.50
2017-11-20T07:17:00.537Z,3.50
2017-11-20T07:19:26.824Z,3.50
2017-11-20T07:21:53.125Z,3.50
2017-11-20T07:24:20.176Z,3.60
2017-11-20T07:26:59.755Z,3.50
2017-11-20T07:29:38.471Z,3.40
2017-11-20T07:32:05.474Z,3.50
2017-11-20T07:34:45.016Z,3.50
2017-11-20T07:37:23.779Z,3.50
2017-11-20T07:40:03.355Z,3.60
2017-11-20T07:42:29.590Z,3.60
2017-11-20T07:44:56.636Z,3.60
2017-11-20T07:47:22.957Z,3.50
2017-11-20T07:49:50.035Z,3.70
2017-11-20T07:52:16.362Z,3.70
2017-11-20T07:54:42.765Z,3.70
2017-11-20T07:57:09.094Z,3.70
2017-11-20T07:59:35.403Z,3.80
2017-11-20T08:02:01.749Z,3.70
2017-11-20T08:04:28.053Z,3.80
2017-11-20T08:06:54.351Z,3.80
2017-11-20T08:09:21.394Z,3.90
2017-11-20T08:11:47.710Z,3.90
2017-11-20T08:14:14.040Z,4.00
2017-11-20T08:16:40.370Z,4.00
2017-11-20T08:19:07.416Z,4.10
2017-11-20T08:21:34.486Z,4.00
2017-11-20T08:24:00.812Z,4.00
2017-11-20T08:26:27.841Z,4.20
2017-11-20T08:28:54.902Z,4.30
2017-11-20T08:31:21.938Z,4.30
2017-11-20T08:33:48.995Z,4.40
2017-11-20T08:36:16.038Z,4.50
2017-11-20T08:38:43.098Z,4.50
2017-11-20T08:41:09.397Z,4.50
2017-11-20T08:43:35.725Z,4.60
2017-11-20T08:46:02.029Z,4.60
2017-11-20T08:48:28.339Z,4.60
2017-11-20T08:50:54.715Z,4.70
2017-11-20T08:53:21.052Z,4.70
2017-11-20T08:55:47.378Z,4.80
2017-11-20T08:58:13.689Z,4.80
2017-11-20T09:00:40.791Z,4.80
2017-11-20T09:03:07.099Z,4.70
2017-11-20T09:05:34.190Z,4.80
2017-11-20T09:08:00.501Z,4.70
2017-11-20T09:10:26.819Z,4.90
2017-11-20T09:12:53.163Z,4.90
2017-11-20T09:15:19.498Z,4.80
2017-11-20T09:17:45.822Z,4.70
2017-11-20T09:20:12.154Z,4.70
2017-11-20T09:22:38.458Z,4.90
2017-11-20T09:25:05.530Z,5.10
2017-11-20T09:27:31.849Z,5.10
2017-11-20T09:29:58.935Z,5.10
2017-11-20T09:32:25.267Z,5.10
2017-11-20T09:34:51.597Z,5.20
2017-11-20T09:37:17.915Z,5.20
2017-11-20T09:39:44.228Z,5.20
2017-11-20T09:42:10.565Z,5.20
2017-11-20T09:44:36.892Z,5.20
2017-11-20T09:47:03.942Z,5.30
2017-11-20T09:49:30.273Z,5.20
2017-11-20T09:51:56.631Z,5.40
2017-11-20T09:54:22.985Z,5.40
2017-11-20T09:56:50.091Z,5.50
2017-11-20T09:59:16.412Z,5.40
2017-11-20T10:01:43.500Z,5.40
2017-11-20T10:04:09.839Z,5.30
2017-11-20T10:06:36.176Z,5.40
2017-11-20T10:09:03.251Z,5.50
2017-11-20T10:11:30.329Z,5.40
2017-11-20T10:13:56.681Z,5.30
2017-11-20T10:16:23.057Z,5.40
2017-11-20T10:18:50.128Z,5.40
2017-11-20T10:21:16.461Z,5.40
2017-11-20T10:23:42.796Z,5.50
2017-11-20T10:26:09.132Z,5.50
2017-11-20T10:28:35.473Z,5.50
2017-11-20T10:31:01.803Z,5.60
2017-11-20T10:33:28.201Z,5.70
2017-11-20T10:35:54.539Z,5.50
2017-11-20T10:38:20.888Z,5.50
2017-11-20T10:40:47.223Z,5.40
2017-11-20T10:43:13.555Z,5.40
2017-11-20T10:45:39.913Z,5.50
2017-11-20T10:48:07.002Z,5.70
2017-11-20T10:50:33.339Z,5.60
2017-11-20T10:52:59.670Z,5.80
2017-11-20T10:55:25.991Z,5.90
2017-11-20T10:57:52.332Z,5.70
2017-11-20T11:00:18.653Z,5.60
2017-11-20T11:02:44.989Z,5.60
2017-11-20T11:05:11.330Z,5.50
2017-11-20T11:07:39.189Z,5.90
2017-11-20T11:10:05.529Z,5.90
2017-11-20T11:12:31.881Z,5.90
2017-11-20T11:14:58.198Z,5.80
2017-11-20T11:17:24.537Z,6.00
2017-11-20T11:19:50.888Z,6.00
2017-11-20T11:22:17.235Z,5.90
2017-11-20T11:24:44.352Z,6.10
2017-11-20T11:27:10.688Z,6.00
2017-11-20T11:29:37.009Z,6.20
2017-11-20T11:32:03.352Z,6.20
2017-11-20T11:34:29.675Z,6.40
2017-11-20T11:36:55.997Z,6.30
2017-11-20T11:39:22.346Z,6.40
2017-11-20T11:41:48.681Z,6.30
2017-11-20T11:44:15.019Z,6.40
2017-11-20T11:46:42.102Z,6.50
2017-11-20T11:49:08.428Z,6.50
2017-11-20T11:51:34.744Z,6.50
2017-11-20T11:54:01.824Z,6.70
2017-11-20T11:56:28.149Z,6.70
2017-11-20T11:58:54.523Z,6.80
2017-11-20T12:01:20.847Z,6.70
2017-11-20T12:03:47.192Z,6.70
2017-11-20T12:06:14.291Z,6.80
2017-11-20T12:08:40.622Z,6.80
2017-11-20T12:11:06.967Z,6.70
2017-11-20T12:13:33.361Z,6.60
2017-11-20T12:15:59.787Z,6.60
2017-11-20T12:18:26.135Z,6.50
2017-11-20T12:20:52.639Z,6.40
2017-11-20T12:23:19.718Z,6.20
2017-11-20T12:25:46.064Z,6.20
2017-11-20T12:28:12.388Z,6.30
2017-11-20T12:30:38.776Z,6.20
2017-11-20T12:33:05.900Z,6.40
2017-11-20T12:35:32.244Z,6.40
2017-11-20T12:37:58.557Z,6.40
2017-11-20T12:40:24.904Z,6.30
2017-11-20T12:42:51.996Z,6.50
2017-11-20T12:45:18.410Z,6.50
2017-11-20T12:47:45.514Z,6.40
2017-11-20T12:50:11.885Z,6.40
2017-11-20T12:52:38.273Z,6.50
2017-11-20T12:55:04.625Z,6.40
2017-11-20T12:57:31.026Z,6.40
2017-11-20T12:59:57.343Z,6.40
2017-11-20T13:02:23.739Z,6.40
2017-11-20T13:04:50.822Z,6.40
2017-11-20T13:07:17.250Z,6.30
2017-11-20T13:09:43.591Z,6.50
2017-11-20T13:12:09.947Z,6.50
2017-11-20T13:14:36.394Z,6.60
2017-11-20T13:17:02.745Z,6.60
2017-11-20T13:19:29.820Z,6.60
2017-11-20T13:21:56.163Z,6.60
2017-11-20T13:24:22.489Z,6.50
2017-11-20T13:26:48.818Z,6.60
2017-11-20T13:29:15.138Z,6.60
2017-11-20T13:31:41.494Z,6.60
2017-11-20T13:34:07.833Z,6.60
2017-11-20T13:36:34.173Z,6.70
2017-11-20T13:39:00.511Z,6.80
2017-11-20T13:41:26.863Z,6.80
2017-11-20T13:43:53.184Z,6.90
2017-11-20T13:46:19.528Z,6.80
2017-11-20T13:48:46.628Z,6.60
2017-11-20T13:51:12.963Z,6.50
2017-11-20T13:53:39.323Z,6.50
2017-11-20T13:56:05.657Z,6.50
2017-11-20T13:58:31.993Z,6.40
2017-11-20T14:00:59.065Z,6.50
2017-11-20T14:03:26.121Z,6.50
2017-11-20T14:05:52.445Z,6.50
2017-11-20T14:08:18.818Z,6.50
2017-11-20T14:10:45.164Z,6.40
2017-11-20T14:13:12.972Z,6.30
2017-11-20T14:15:39.337Z,6.30
2017-11-20T14:18:05.657Z,6.30
2017-11-20T14:20:32.000Z,6.30
2017-11-20T14:22:58.323Z,6.40
2017-11-20T14:25:24.659Z,6.40
2017-11-20T14:27:50.980Z,6.30
2017-11-20T14:30:17.298Z,6.20
2017-11-20T14:32:43.621Z,6.20
2017-11-20T14:35:09.953Z,6.10
2017-11-20T14:37:36.279Z,6.00
2017-11-20T14:40:02.624Z,6.10
2017-11-20T14:42:28.946Z,6.10
2017-11-20T14:44:55.302Z,6.10
2017-11-20T14:47:21.628Z,6.10
2017-11-20T14:49:47.949Z,6.10
2017-11-20T14:52:19.319Z,6.10
2017-11-20T14:54:45.630Z,6.10
2017-11-20T14:57:11.972Z,6.10
2017-11-20T14:59:38.292Z,6.10
2017-11-20T15:02:04.634Z,6.10
2017-11-20T15:04:30.957Z,6.10
2017-11-20T15:06:57.296Z,6.10
2017-11-20T15:09:23.614Z,6.10
2017-11-20T15:11:49.964Z,6.20
2017-11-20T15:14:16.300Z,6.20
2017-11-20T15:16:42.642Z,6.00
2017-11-20T15:19:09.716Z,6.10
2017-11-20T15:21:36.814Z,6.20
2017-11-20T15:24:03.171Z,6.10
2017-11-20T15:26:29.505Z,6.20
2017-11-20T15:28:56.569Z,6.20
2017-11-20T15:31:23.621Z,6.10
2017-11-20T15:33:50.720Z,6.00
2017-11-20T15:36:17.048Z,5.90
2017-11-20T15:38:43.392Z,6.00
2017-11-20T15:41:09.738Z,5.90
2017-11-20T15:43:36.049Z,6.10
2017-11-20T15:46:02.339Z,6.00
2017-11-20T15:48:28.671Z,6.10
2017-11-20T15:50:54.979Z,6.10
2017-11-20T15:53:22.022Z,6.10
2017-11-20T15:55:49.075Z,6.00
2017-11-20T15:58:16.121Z,6.10
2017-11-20T16:00:42.437Z,6.00
2017-11-20T16:03:09.518Z,6.10
2017-11-20T16:05:35.820Z,6.10
2017-11-20T16:08:02.142Z,6.00
2017-11-20T16:10:28.444Z,5.90
2017-11-20T16:12:54.801Z,6.00
2017-11-20T16:15:21.103Z,5.90
2017-11-20T16:17:47.410Z,5.90
2017-11-20T16:20:13.719Z,5.90
2017-11-20T16:22:40.778Z,5.70
2017-11-20T16:25:07.099Z,5.60
2017-11-20T16:27:34.168Z,5.60
2017-11-20T16:30:00.471Z,5.60
2017-11-20T16:32:26.801Z,5.60
2017-11-20T16:34:53.118Z,5.60
2017-11-20T16:37:20.155Z,5.80
2017-11-20T16:39:46.486Z,5.80
2017-11-20T16:42:12.783Z,5.80
2017-11-20T16:44:39.085Z,5.70
2017-11-20T16:47:05.442Z,5.70
2017-11-20T16:49:31.775Z,5.60
2017-11-20T16:51:58.082Z,5.70
2017-11-20T16:54:24.401Z,5.80
2017-11-20T16:57:03.039Z,5.80
2017-11-20T16:59:30.076Z,5.70
2017-11-20T17:02:00.299Z,5.70
2017-11-20T17:04:26.619Z,5.80
2017-11-20T17:06:53.670Z,5.60
2017-11-20T17:09:20.003Z,5.60
2017-11-20T17:11:46.313Z,5.60
2017-11-20T17:14:12.661Z,5.60
2017-11-20T17:16:38.951Z,5.60
2017-11-20T17:19:05.246Z,5.60
2017-11-20T17:21:32.301Z,5.60
2017-11-20T17:23:58.947Z,5.60
2017-11-20T17:26:25.254Z,5.60
2017-11-20T17:28:51.558Z,5.50
2017-11-20T17:31:18.604Z,5.50
2017-11-20T17:33:44.931Z,5.50
2017-11-20T17:36:11.996Z,5.50
2017-11-20T17:38:38.311Z,5.50
2017-11-20T17:41:05.378Z,5.50
2017-11-20T17:43:31.668Z,5.40
2017-11-20T17:45:57.978Z,5.50
2017-11-20T17:48:24.278Z,5.40
2017-11-20T17:50:50.570Z,5.30
2017-11-20T17:53:17.603Z,5.30
2017-11-20T17:55:44.647Z,5.40
2017-11-20T17:58:10.966Z,5.40
2017-11-20T18:00:37.332Z,5.50
2017-11-20T18:03:03.743Z,5.40
2017-11-20T18:05:31.041Z,5.40
2017-11-20T18:07:58.322Z,5.30
2017-11-20T18:10:24.618Z,5.20
2017-11-20T18:12:50.920Z,5.30
2017-11-20T18:15:17.997Z,5.40
2017-11-20T18:17:44.403Z,5.30
2017-11-20T18:20:10.733Z,5.40
2017-11-20T18:22:37.062Z,5.40
2017-11-20T18:25:03.553Z,5.40
2017-11-20T18:27:29.885Z,5.40
2017-11-20T18:29:56.186Z,5.40
2017-11-20T18:32:22.605Z,5.40
2017-11-20T18:34:48.972Z,5.50
2017-11-20T18:37:16.071Z,5.40
2017-11-20T18:39:43.152Z,5.40
2017-11-20T18:42:09.463Z,5.30
2017-11-20T18:44:35.765Z,5.30
2017-11-20T18:47:02.069Z,5.40
2017-11-20T18:49:28.382Z,5.40
2017-11-20T18:51:54.733Z,5.40
2017-11-20T18:54:21.048Z,5.40
2017-11-20T18:56:47.376Z,5.40
2017-11-20T18:59:13.695Z,5.40
2017-11-20T19:01:52.424Z,5.40
2017-11-20T19:04:45.987Z,5.50
2017-11-20T19:07:24.597Z,5.40
2017-11-20T19:09:51.627Z,5.30
2017-11-20T19:12:17.965Z,5.30
2017-11-20T19:14:44.291Z,5.30
2017-11-20T19:17:10.614Z,5.30
2017-11-20T19:19:36.951Z,5.40
2017-11-20T19:22:03.342Z,5.30
2017-11-20T19:24:29.722Z,5.40
2017-11-20T19:26:56.100Z,5.30
2017-11-20T19:29:23.226Z,5.40
2017-11-20T19:31:49.547Z,5.30
2017-11-20T19:34:15.854Z,5.10
2017-11-20T19:36:42.182Z,5.30
2017-11-20T19:39:08.523Z,5.20
2017-11-20T19:41:34.840Z,5.20
2017-11-20T19:44:01.192Z,5.10
2017-11-20T19:46:27.521Z,5.20
2017-11-20T19:48:53.810Z,5.20
2017-11-20T19:51:20.873Z,5.30
2017-11-20T19:53:47.905Z,5.30
2017-11-20T19:56:14.967Z,5.20
2017-11-20T19:58:41.996Z,5.20
2017-11-20T20:01:09.039Z,5.30
2017-11-20T20:03:42.593Z,5.20
2017-11-20T20:06:08.917Z,5.30
2017-11-20T20:08:35.248Z,5.20
2017-11-20T20:11:01.555Z,5.20
2017-11-20T20:13:40.331Z,5.30
2017-11-20T20:16:17.717Z,5.30
2017-11-20T20:18:44.321Z,5.20
2017-11-20T20:21:10.680Z,5.20
2017-11-20T20:23:37.015Z,5.20
2017-11-20T20:26:03.691Z,5.20
2017-11-20T20:28:30.000Z,5.20
2017-11-20T20:30:56.323Z,5.10
2017-11-20T20:33:22.641Z,5.10
2017-11-20T20:35:49.309Z,5.10
2017-11-20T20:38:15.613Z,5.20
2017-11-20T20:40:41.910Z,5.20
2017-11-20T20:43:08.265Z,5.10
2017-11-20T20:45:34.581Z,5.10
2017-11-20T20:48:00.874Z,5.10
2017-11-20T20:50:27.903Z,5.20
2017-11-20T20:52:54.991Z,5.10
2017-11-20T20:55:21.404Z,5.10
2017-11-20T20:57:48.489Z,5.10
2017-11-20T21:00:14.811Z,5.10
2017-11-20T21:02:41.503Z,5.10
2017-11-20T21:05:08.542Z,5.10
2017-11-20T21:07:34.820Z,5.10
2017-11-20T21:10:07.286Z,5.10
2017-11-20T21:12:33.647Z,5.10
2017-11-20T21:14:59.968Z,5.00
2017-11-20T21:17:26.261Z,5.00
2017-11-20T21:19:52.598Z,5.00
2017-11-20T21:22:19.613Z,5.10
2017-11-20T21:24:46.709Z,5.10
2017-11-20T21:27:13.048Z,5.10
2017-11-20T21:29:39.339Z,5.20
2017-11-20T21:32:06.535Z,5.00
2017-11-20T21:34:32.889Z,4.90
2017-11-20T21:36:59.230Z,5.00
2017-11-20T21:39:26.337Z,5.00
2017-11-20T21:41:52.670Z,5.00
2017-11-20T21:44:18.976Z,5.00
2017-11-20T21:46:45.291Z,5.00
2017-11-20T21:49:12.329Z,5.10
2017-11-20T21:51:38.682Z,5.00
2017-11-20T21:54:04.968Z,5.10
2017-11-20T21:56:31.303Z,5.10
2017-11-20T21:58:58.354Z,5.00
2017-11-20T22:01:25.429Z,5.00
2017-11-20T22:03:52.649Z,4.90
2017-11-20T22:06:19.007Z,5.00
2017-11-20T22:08:46.080Z,5.00
2017-11-20T22:11:12.404Z,5.00
2017-11-20T22:13:38.721Z,5.10
2017-11-20T22:16:05.049Z,5.00
2017-11-20T22:18:31.363Z,4.90
2017-11-20T22:20:57.679Z,5.00
2017-11-20T22:23:24.000Z,5.00
2017-11-20T22:25:50.322Z,5.00
2017-11-20T22:28:16.628Z,5.00
2017-11-20T22:30:42.943Z,5.10
2017-11-20T22:33:09.273Z,5.00
2017-11-20T22:35:35.575Z,5.10
2017-11-20T22:38:02.640Z,5.10
2017-11-20T22:40:28.945Z,5.00
2017-11-20T22:42:55.273Z,5.10
2017-11-20T22:45:21.576Z,5.00
2017-11-20T22:47:47.922Z,5.10
2017-11-20T22:50:14.238Z,5.10
2017-11-20T22:52:40.593Z,5.00
2017-11-20T22:55:06.881Z,5.00
2017-11-20T22:57:33.212Z,5.00
2017-11-20T22:59:59.525Z,5.00
2017-11-20T23:02:25.862Z,4.90
2017-11-20T23:04:52.170Z,5.00
2017-11-20T23:07:19.212Z,4.90
2017-11-20T23:09:45.535Z,4.80
2017-11-20T23:12:13.439Z,5.00
2017-11-20T23:14:39.761Z,4.90
2017-11-20T23:17:06.084Z,4.90
2017-11-20T23:19:32.410Z,4.90
2017-11-20T23:21:58.728Z,5.00
2017-11-20T23:24:25.051Z,5.10
2017-11-20T23:26:52.116Z,4.90
2017-11-20T23:29:18.413Z,4.90
2017-11-20T23:31:46.185Z,5.00
2017-11-20T23:34:13.257Z,5.20
2017-11-20T23:36:39.552Z,5.20
2017-11-20T23:39:05.852Z,5.10
2017-11-20T23:41:32.142Z,5.10
2017-11-20T23:43:58.460Z,5.00
2017-11-20T23:46:25.504Z,5.00
2017-11-20T23:48:52.546Z,5.10
2017-11-20T23:51:19.595Z,5.10
2017-11-20T23:53:45.884Z,5.10
2017-11-20T23:56:12.190Z,5.00
2017-11-20T23:58:38.479Z,5.00
